Crown Princess — ZCDM6 — position and weather

sailwx.info

Track history (hours):
 
Tides and Currents Weather Stations Pressure Air Temp Water Temp Dewpoint Dewpoint Depression Visibility Wind Speed Wind Dir Waves Ship Positions

Crown Princess

Last reported at 2018-Aug-16 19:54 UTC. Time now 2018-Aug-16 20:18 UTC.
Position N 35°29' E 024°07'.

Type: Passenger vessel. MMSI: 310500000.

Date/timePositionNaut miles runAvg speedWind from/ knotsBaromVisibWave heightAir tempDewpointWater temp
2018-Aug-16 19:54N 35°29' E 024°07'2 0.2
2018-Aug-16 08:20N 35°30' E 024°04'4 8.6
2018-Aug-16 07:53N 35°29' E 024°09'513.2
2018-Aug-16 07:30N 35°32' E 024°14'1816.3
2018-Aug-16 06:24N 35°41' E 023°55'1118.4
2018-Aug-16 05:49N 35°44' E 023°43'618.4
2018-Aug-16 05:30N 35°45' E 023°36'918.2
2018-Aug-16 05:00N 35°46' E 023°24'17819.7
2018-Aug-15 20:00N 37°36' E 020°30'167 8.4 240 / 101011.510.8 27.022.628.2
2018-Aug-15 00:00N 40°12' E 019°12'59 2.2 080 / 41010.110.8 26.023.828.0
2018-Aug-13 21:00N 41°06' E 018°42'23317.9 180 / 121008.010.8 28.022.128.0
2018-Aug-13 07:57N 37°46' E 016°05'1020.5
2018-Aug-13 07:28N 37°48' E 015°53'1018.5
2018-Aug-13 06:57N 37°51' E 015°42'920.9
2018-Aug-13 06:30N 37°59' E 015°35'1019.4
2018-Aug-13 06:00N 38°08' E 015°35'714.7
2018-Aug-13 05:30N 38°15' E 015°39'510.6
2018-Aug-13 05:00N 38°21' E 015°39'816.3
2018-Aug-13 04:30N 38°27' E 015°32'918.3
2018-Aug-13 04:00N 38°33' E 015°23'918.2
2018-Aug-13 03:30N 38°39' E 015°15'917.5
2018-Aug-13 03:00N 38°45' E 015°07'714.3
2018-Aug-13 02:30N 38°51' E 015°12'612.6
2018-Aug-13 02:00N 38°57' E 015°11'813.1
2018-Aug-13 01:25N 39°04' E 015°07'5113.1
2018-Aug-12 21:33N 39°51' E 014°42'113.4
2018-Aug-12 21:29N 39°52' E 014°41'613.4
2018-Aug-12 21:01N 39°58' E 014°38'4234.7
2018-Aug-12 21:00N 39°54' E 014°36'1020.0 320 / 81016.027.0 26.520.529.0
2018-Aug-12 20:31N 40°04' E 014°35'713.1
2018-Aug-12 20:01N 40°10' E 014°32'713.0
2018-Aug-12 19:30N 40°16' E 014°32'612.6
2018-Aug-12 19:00N 40°22' E 014°34'611.4
2018-Aug-12 18:30N 40°28' E 014°37'510.8
2018-Aug-12 18:00N 40°33' E 014°40'510.8
2018-Aug-12 17:30N 40°38' E 014°43'3 6.3
2018-Aug-12 17:00N 40°40' E 014°45'0 0.4
2018-Aug-12 16:27N 40°41' E 014°45'0 0.0
2018-Aug-12 16:00N 40°41' E 014°45'0 0.0
2018-Aug-12 15:21N 40°41' E 014°45'0 0.0
2018-Aug-12 15:00N 40°41' E 014°45'0 0.0
2018-Aug-12 14:30N 40°41' E 014°45'0 0.0
2018-Aug-12 14:00N 40°41' E 014°45'0 0.0
2018-Aug-12 13:27N 40°41' E 014°45'0 0.0
2018-Aug-12 13:00N 40°41' E 014°45'0 0.0
2018-Aug-12 12:00N 40°41' E 014°45'0 0.0
2018-Aug-12 11:21N 40°41' E 014°45'0 0.0
2018-Aug-12 11:00N 40°41' E 014°45'0 0.0
2018-Aug-12 10:27N 40°41' E 014°45'4 0.7
2018-Aug-12 04:03N 40°37' E 014°41'118.2
2018-Aug-12 04:00N 40°37' E 014°41'1019.8
2018-Aug-12 03:30N 40°31' E 014°30'918.8
2018-Aug-12 03:00N 40°27' E 014°18'815.5
2018-Aug-12 02:30N 40°27' E 014°08'918.6
2018-Aug-12 02:00N 40°30' E 013°57'1121.1
2018-Aug-12 01:31N 40°34' E 013°44'1121.0
2018-Aug-12 01:00N 40°37' E 013°30'1121.0
2018-Aug-12 00:30N 40°40' E 013°17'1121.2
2018-Aug-12 00:00N 40°45' E 013°05'1121.2
2018-Aug-11 23:30N 40°49' E 012°52'1121.2
2018-Aug-11 23:00N 40°52' E 012°38'1220.2
2018-Aug-11 22:24N 41°00' E 012°26'818.7
2018-Aug-11 22:00N 41°07' E 012°20'918.2
2018-Aug-11 21:30N 41°14' E 012°13'918.1
2018-Aug-11 21:00N 41°21' E 012°06'10622.0
2018-Aug-11 21:00N 41°12' E 012°12'1939.2 290 / 161017.610.8 27.523.928.0
2018-Aug-11 20:30N 41°28' E 011°59'918.0
2018-Aug-11 20:00N 41°36' E 011°52'918.0
2018-Aug-11 19:30N 41°43' E 011°45'917.0
2018-Aug-11 19:00N 41°51' E 011°40'816.6
2018-Aug-11 18:30N 41°59' E 011°38'16 0.9
2018-Aug-11 00:41N 42°05' E 011°17'314.4
2018-Aug-11 00:30N 42°06' E 011°14'1314.2
2018-Aug-10 23:36N 42°11' E 010°59'1617.3
2018-Aug-10 22:42N 42°21' E 010°42'517.9
2018-Aug-10 22:25N 42°24' E 010°37'818.2
2018-Aug-10 22:00N 42°29' E 010°29'918.0
2018-Aug-10 21:30N 42°34' E 010°19'917.7
2018-Aug-10 21:00N 42°40' E 010°09'101272.5
2018-Aug-10 21:00N 42°30' E 010°12'1835.5 020 / 31020.110.8 27.022.629.0
2018-Aug-10 20:29N 42°46' E 010°01'917.8
2018-Aug-10 20:00N 42°55' E 010°03'917.9
2018-Aug-10 19:30N 43°03' E 010°05'917.4
2018-Aug-10 19:00N 43°12' E 010°07'815.3
2018-Aug-10 18:30N 43°20' E 010°09'714.3
2018-Aug-10 18:00N 43°27' E 010°10'510.1
2018-Aug-10 17:31N 43°31' E 010°13'4 7.6
2018-Aug-10 17:00N 43°33' E 010°18'0 0.1
2018-Aug-10 16:30N 43°33' E 010°18'0 0.0
2018-Aug-10 16:00N 43°33' E 010°18'0 0.0
2018-Aug-10 15:30N 43°33' E 010°18'0 0.0
2018-Aug-10 15:00N 43°33' E 010°18'0 0.0
2018-Aug-10 14:30N 43°33' E 010°18'0 0.0
2018-Aug-10 14:00N 43°33' E 010°18'0 0.0
2018-Aug-10 13:30N 43°33' E 010°18'0 0.0
2018-Aug-10 13:00N 43°33' E 010°18'0 0.0
2018-Aug-10 12:30N 43°33' E 010°18'0 0.0
2018-Aug-10 12:00N 43°33' E 010°18'0 0.0
2018-Aug-10 11:30N 43°33' E 010°18'0 0.0
2018-Aug-10 11:00N 43°33' E 010°18'0 0.0
2018-Aug-10 10:30N 43°33' E 010°18'0 0.0
2018-Aug-10 10:00N 43°33' E 010°18'0 0.0
2018-Aug-10 09:30N 43°33' E 010°18'0 0.0
2018-Aug-10 09:00N 43°33' E 010°18'0 0.0
2018-Aug-10 08:30N 43°33' E 010°18'0 0.0
2018-Aug-10 08:00N 43°33' E 010°18'0 0.0
2018-Aug-10 07:30N 43°33' E 010°18'0 0.0
2018-Aug-10 07:00N 43°33' E 010°18'0 0.0
2018-Aug-10 06:30N 43°33' E 010°18'0 0.0
2018-Aug-10 06:00N 43°33' E 010°18'0 0.0
2018-Aug-10 05:30N 43°33' E 010°18'0 0.0
2018-Aug-10 05:00N 43°33' E 010°18'0 0.0
2018-Aug-10 04:30N 43°33' E 010°18'1 1.6
2018-Aug-10 04:00N 43°32' E 010°17'3 6.5
2018-Aug-10 03:30N 43°30' E 010°14'4 7.7
2018-Aug-10 03:00N 43°28' E 010°10'510.9
2018-Aug-10 02:30N 43°24' E 010°05'611.9
2018-Aug-10 02:00N 43°19' E 009°59'510.7
2018-Aug-10 01:30N 43°19' E 009°52'510.6
2018-Aug-10 01:00N 43°21' E 009°45'611.6
2018-Aug-10 00:30N 43°25' E 009°40'612.2
2018-Aug-10 00:00N 43°29' E 009°34'612.5
2018-Aug-09 23:30N 43°33' E 009°27'612.1
2018-Aug-09 23:00N 43°37' E 009°20'611.9
2018-Aug-09 22:30N 43°42' E 009°15'611.9
2018-Aug-09 22:00N 43°46' E 009°09'611.6
2018-Aug-09 21:30N 43°50' E 009°04'511.1
2018-Aug-09 21:00N 43°55' E 009°03'510.5
2018-Aug-09 20:30N 44°01' E 009°02'612.9
2018-Aug-09 20:00N 44°07' E 009°01'714.1
2018-Aug-09 19:30N 44°14' E 008°60'713.9
2018-Aug-09 19:00N 44°21' E 008°57'3 7.0
2018-Aug-09 18:30N 44°24' E 008°55'1 1.5
2018-Aug-09 18:00N 44°25' E 008°55'0 0.0
2018-Aug-09 17:30N 44°25' E 008°55'0 0.0
2018-Aug-09 17:00N 44°25' E 008°55'0 0.0
2018-Aug-09 16:30N 44°25' E 008°55'0 0.0
2018-Aug-09 16:00N 44°25' E 008°55'0 0.0
2018-Aug-09 15:30N 44°25' E 008°55'0 0.0
2018-Aug-09 15:00N 44°25' E 008°55'0 0.0
2018-Aug-09 14:30N 44°25' E 008°55'0 0.0
2018-Aug-09 14:00N 44°25' E 008°55'0 0.0
2018-Aug-09 13:30N 44°25' E 008°55'0 0.0
2018-Aug-09 13:00N 44°25' E 008°55'0 0.0
2018-Aug-09 12:30N 44°25' E 008°55'0 0.0
2018-Aug-09 12:00N 44°25' E 008°55'0 0.0
2018-Aug-09 11:30N 44°25' E 008°55'0 0.0
2018-Aug-09 11:00N 44°25' E 008°55'0 0.0
2018-Aug-09 10:30N 44°25' E 008°55'0 0.0
2018-Aug-09 10:00N 44°25' E 008°55'0 0.0
2018-Aug-09 09:30N 44°25' E 008°55'0 0.0
2018-Aug-09 09:00N 44°25' E 008°55'0 0.0
2018-Aug-09 08:30N 44°25' E 008°55'0 0.0
2018-Aug-09 08:00N 44°25' E 008°55'0 0.0
2018-Aug-09 07:30N 44°25' E 008°55'0 0.0
2018-Aug-09 07:00N 44°25' E 008°55'0 0.0
2018-Aug-09 06:30N 44°25' E 008°55'0 0.0
2018-Aug-09 06:00N 44°25' E 008°55'1 1.1
2018-Aug-09 05:30N 44°24' E 008°55'3 5.5
2018-Aug-09 05:00N 44°22' E 008°58'510.8
2018-Aug-09 04:30N 44°17' E 008°58'815.3
2018-Aug-09 04:01N 44°12' E 008°49'713.8
2018-Aug-09 03:30N 44°08' E 008°42'713.3
2018-Aug-09 03:00N 44°03' E 008°35'612.4
2018-Aug-09 02:30N 43°59' E 008°29'612.1
2018-Aug-09 02:00N 43°55' E 008°22'611.7
2018-Aug-09 01:30N 43°52' E 008°16'813.3
2018-Aug-09 00:55N 43°47' E 008°07'817.1
2018-Aug-09 00:27N 43°43' E 007°57'817.2
2018-Aug-08 23:59N 43°38' E 007°48'817.2
2018-Aug-08 23:30N 43°33' E 007°39'917.1
2018-Aug-08 23:01N 43°28' E 007°30'917.1
2018-Aug-08 22:31N 43°23' E 007°21'917.4
2018-Aug-08 22:00N 43°18' E 007°11'917.5
2018-Aug-08 21:31N 43°12' E 007°01'712.7
2018-Aug-08 21:00N 43°06' E 007°00'67588.6 250 / 61015.310.8 27.023.428.0
2018-Aug-08 20:59N 43°07' E 006°51'917.3
2018-Aug-08 20:27N 43°02' E 006°41'1017.2
2018-Aug-08 19:54N 42°56' E 006°31'616.8
2018-Aug-08 19:30N 42°54' E 006°22'917.3
2018-Aug-08 18:59N 42°54' E 006°10'4217.4
2018-Aug-08 16:36N 43°08' E 005°16'217.9
2018-Aug-08 16:30N 43°09' E 005°14'815.1
2018-Aug-08 16:00N 43°16' E 005°09'815.7
2018-Aug-08 15:30N 43°21' E 005°17'2 2.9
2018-Aug-08 14:51N 43°21' E 005°20'0 0.0
2018-Aug-08 14:12N 43°21' E 005°20'0 0.0
2018-Aug-08 13:58N 43°21' E 005°20'0 0.0
2018-Aug-08 13:22N 43°21' E 005°20'0 0.0
2018-Aug-08 12:45N 43°21' E 005°20'0 0.0
2018-Aug-08 11:51N 43°21' E 005°20'0 0.0
2018-Aug-08 11:28N 43°21' E 005°20'0 0.0
2018-Aug-08 10:51N 43°21' E 005°20'0 0.0
2018-Aug-08 10:30N 43°21' E 005°20'0 0.0
2018-Aug-08 09:56N 43°21' E 005°20'0 0.0
2018-Aug-08 09:28N 43°21' E 005°20'0 0.0
2018-Aug-08 08:57N 43°21' E 005°20'0 0.0
2018-Aug-08 08:31N 43°21' E 005°20'0 0.0
2018-Aug-08 07:50N 43°21' E 005°20'0 0.0
2018-Aug-08 07:22N 43°21' E 005°20'0 0.0
2018-Aug-08 06:58N 43°21' E 005°20'0 0.0
2018-Aug-08 06:28N 43°21' E 005°20'0 0.0
2018-Aug-08 05:54N 43°21' E 005°20'0 1.2
2018-Aug-08 05:30N 43°21' E 005°19'3 6.5
2018-Aug-08 05:01N 43°19' E 005°16'611.1
2018-Aug-08 04:30N 43°15' E 005°10'612.3
2018-Aug-08 04:00N 43°10' E 005°07'612.6
2018-Aug-08 03:30N 43°05' E 005°02'11519.0
2018-Aug-07 21:27N 41°34' E 003°26'920.3
2018-Aug-07 21:00N 41°27' E 003°19'3236.0
2018-Aug-07 21:00N 41°30' E 003°18'12819.2 290 / 51014.910.8 27.024.126.0
2018-Aug-07 14:20N 39°48' E 001°36'618.5
2018-Aug-07 14:00N 39°43' E 001°31'1019.3
2018-Aug-07 13:29N 39°35' E 001°23'1021.3
2018-Aug-07 13:00N 39°27' E 001°15'5721.4
2018-Aug-07 10:20N 38°41' E 000°32'721.5
2018-Aug-07 10:00N 38°35' E 000°27'1121.1
2018-Aug-07 09:29N 38°26' E 000°19'1019.8
2018-Aug-07 09:00N 38°18' E 000°12'232.7 150 / 101013.410.8 29.023.228.0
2018-Aug-07 08:57N 38°17' E 000°10'920.2
2018-Aug-07 08:30N 38°10' E 000°03'1020.2
2018-Aug-07 08:00N 38°02' W 000°04'1219.9
2018-Aug-07 07:25N 37°53' W 000°13'818.1
2018-Aug-07 07:00N 37°47' W 000°19'918.2
2018-Aug-07 06:30N 37°40' W 000°26'918.1
2018-Aug-07 06:00N 37°32' W 000°33'918.2
2018-Aug-07 05:30N 37°26' W 000°41'918.3
2018-Aug-07 05:00N 37°20' W 000°50'918.3
2018-Aug-07 04:29N 37°14' W 000°58'918.4
2018-Aug-07 03:59N 37°08' W 001°07'918.3
2018-Aug-07 03:29N 37°02' W 001°16'1118.1
2018-Aug-07 02:52N 36°55' W 001°26'1917.9
2018-Aug-07 01:48N 36°42' W 001°44'618.5
2018-Aug-07 01:29N 36°37' W 001°49'4617.5
2018-Aug-06 22:51N 36°20' W 002°42'2111.1
2018-Aug-06 21:00N 36°12' W 003°06'   360 / 41013.210.8 26.023.823.0
Track history (hours):
 
Tides and Currents Weather Stations Pressure Air Temp Water Temp Dewpoint Dewpoint Depression Visibility Wind Speed Wind Dir Waves Ship Positions

Crown Princess

Last reported at 2018-Aug-16 19:54 UTC. Time now 2018-Aug-16 20:18 UTC.
Position N 35°29' E 024°07'.

Type: Passenger vessel. MMSI: 310500000.

Date/timePositionNaut miles runAvg speedWind from/ knotsBaromVisibWave heightAir tempDewpointWater temp
2018-Aug-16 19:54N 35°29' E 024°07'2 0.2
2018-Aug-16 08:20N 35°30' E 024°04'4 8.6
2018-Aug-16 07:53N 35°29' E 024°09'513.2
2018-Aug-16 07:30N 35°32' E 024°14'1816.3
2018-Aug-16 06:24N 35°41' E 023°55'1118.4
2018-Aug-16 05:49N 35°44' E 023°43'618.4
2018-Aug-16 05:30N 35°45' E 023°36'918.2
2018-Aug-16 05:00N 35°46' E 023°24'17819.7
2018-Aug-15 20:00N 37°36' E 020°30'167 8.4 240 / 101011.510.8 27.022.628.2
2018-Aug-15 00:00N 40°12' E 019°12'59 2.2 080 / 41010.110.8 26.023.828.0
2018-Aug-13 21:00N 41°06' E 018°42'23317.9 180 / 121008.010.8 28.022.128.0
2018-Aug-13 07:57N 37°46' E 016°05'1020.5
2018-Aug-13 07:28N 37°48' E 015°53'1018.5
2018-Aug-13 06:57N 37°51' E 015°42'920.9
2018-Aug-13 06:30N 37°59' E 015°35'1019.4
2018-Aug-13 06:00N 38°08' E 015°35'714.7
2018-Aug-13 05:30N 38°15' E 015°39'510.6
2018-Aug-13 05:00N 38°21' E 015°39'816.3
2018-Aug-13 04:30N 38°27' E 015°32'918.3
2018-Aug-13 04:00N 38°33' E 015°23'918.2
2018-Aug-13 03:30N 38°39' E 015°15'917.5
2018-Aug-13 03:00N 38°45' E 015°07'714.3
2018-Aug-13 02:30N 38°51' E 015°12'612.6
2018-Aug-13 02:00N 38°57' E 015°11'813.1
2018-Aug-13 01:25N 39°04' E 015°07'5113.1
2018-Aug-12 21:33N 39°51' E 014°42'113.4
2018-Aug-12 21:29N 39°52' E 014°41'613.4
2018-Aug-12 21:01N 39°58' E 014°38'4234.7
2018-Aug-12 21:00N 39°54' E 014°36'1020.0 320 / 81016.027.0 26.520.529.0
2018-Aug-12 20:31N 40°04' E 014°35'713.1
2018-Aug-12 20:01N 40°10' E 014°32'713.0
2018-Aug-12 19:30N 40°16' E 014°32'612.6
2018-Aug-12 19:00N 40°22' E 014°34'611.4
2018-Aug-12 18:30N 40°28' E 014°37'510.8
2018-Aug-12 18:00N 40°33' E 014°40'510.8
2018-Aug-12 17:30N 40°38' E 014°43'3 6.3
2018-Aug-12 17:00N 40°40' E 014°45'0 0.4
2018-Aug-12 16:27N 40°41' E 014°45'0 0.0
2018-Aug-12 16:00N 40°41' E 014°45'0 0.0
2018-Aug-12 15:21N 40°41' E 014°45'0 0.0
2018-Aug-12 15:00N 40°41' E 014°45'0 0.0
2018-Aug-12 14:30N 40°41' E 014°45'0 0.0
2018-Aug-12 14:00N 40°41' E 014°45'0 0.0
2018-Aug-12 13:27N 40°41' E 014°45'0 0.0
2018-Aug-12 13:00N 40°41' E 014°45'0 0.0
2018-Aug-12 12:00N 40°41' E 014°45'0 0.0
2018-Aug-12 11:21N 40°41' E 014°45'0 0.0
2018-Aug-12 11:00N 40°41' E 014°45'0 0.0
2018-Aug-12 10:27N 40°41' E 014°45'4 0.7
2018-Aug-12 04:03N 40°37' E 014°41'118.2
2018-Aug-12 04:00N 40°37' E 014°41'1019.8
2018-Aug-12 03:30N 40°31' E 014°30'918.8
2018-Aug-12 03:00N 40°27' E 014°18'815.5
2018-Aug-12 02:30N 40°27' E 014°08'918.6
2018-Aug-12 02:00N 40°30' E 013°57'1121.1
2018-Aug-12 01:31N 40°34' E 013°44'1121.0
2018-Aug-12 01:00N 40°37' E 013°30'1121.0
2018-Aug-12 00:30N 40°40' E 013°17'1121.2
2018-Aug-12 00:00N 40°45' E 013°05'1121.2
2018-Aug-11 23:30N 40°49' E 012°52'1121.2
2018-Aug-11 23:00N 40°52' E 012°38'1220.2
2018-Aug-11 22:24N 41°00' E 012°26'818.7
2018-Aug-11 22:00N 41°07' E 012°20'918.2
2018-Aug-11 21:30N 41°14' E 012°13'918.1
2018-Aug-11 21:00N 41°21' E 012°06'10622.0
2018-Aug-11 21:00N 41°12' E 012°12'1939.2 290 / 161017.610.8 27.523.928.0
2018-Aug-11 20:30N 41°28' E 011°59'918.0
2018-Aug-11 20:00N 41°36' E 011°52'918.0
2018-Aug-11 19:30N 41°43' E 011°45'917.0
2018-Aug-11 19:00N 41°51' E 011°40'816.6
2018-Aug-11 18:30N 41°59' E 011°38'16 0.9
2018-Aug-11 00:41N 42°05' E 011°17'314.4
2018-Aug-11 00:30N 42°06' E 011°14'1314.2
2018-Aug-10 23:36N 42°11' E 010°59'1617.3
2018-Aug-10 22:42N 42°21' E 010°42'517.9
2018-Aug-10 22:25N 42°24' E 010°37'818.2
2018-Aug-10 22:00N 42°29' E 010°29'918.0
2018-Aug-10 21:30N 42°34' E 010°19'917.7
2018-Aug-10 21:00N 42°40' E 010°09'101272.5
2018-Aug-10 21:00N 42°30' E 010°12'1835.5 020 / 31020.110.8 27.022.629.0
2018-Aug-10 20:29N 42°46' E 010°01'917.8
2018-Aug-10 20:00N 42°55' E 010°03'917.9
2018-Aug-10 19:30N 43°03' E 010°05'917.4
2018-Aug-10 19:00N 43°12' E 010°07'815.3
2018-Aug-10 18:30N 43°20' E 010°09'714.3
2018-Aug-10 18:00N 43°27' E 010°10'510.1
2018-Aug-10 17:31N 43°31' E 010°13'4 7.6
2018-Aug-10 17:00N 43°33' E 010°18'0 0.1
2018-Aug-10 16:30N 43°33' E 010°18'0 0.0
2018-Aug-10 16:00N 43°33' E 010°18'0 0.0
2018-Aug-10 15:30N 43°33' E 010°18'0 0.0
2018-Aug-10 15:00N 43°33' E 010°18'0 0.0
2018-Aug-10 14:30N 43°33' E 010°18'0 0.0
2018-Aug-10 14:00N 43°33' E 010°18'0 0.0
2018-Aug-10 13:30N 43°33' E 010°18'0 0.0
2018-Aug-10 13:00N 43°33' E 010°18'0 0.0
2018-Aug-10 12:30N 43°33' E 010°18'0 0.0
2018-Aug-10 12:00N 43°33' E 010°18'0 0.0
2018-Aug-10 11:30N 43°33' E 010°18'0 0.0
2018-Aug-10 11:00N 43°33' E 010°18'0 0.0
2018-Aug-10 10:30N 43°33' E 010°18'0 0.0
2018-Aug-10 10:00N 43°33' E 010°18'0 0.0
2018-Aug-10 09:30N 43°33' E 010°18'0 0.0
2018-Aug-10 09:00N 43°33' E 010°18'0 0.0
2018-Aug-10 08:30N 43°33' E 010°18'0 0.0
2018-Aug-10 08:00N 43°33' E 010°18'0 0.0
2018-Aug-10 07:30N 43°33' E 010°18'0 0.0
2018-Aug-10 07:00N 43°33' E 010°18'0 0.0
2018-Aug-10 06:30N 43°33' E 010°18'0 0.0
2018-Aug-10 06:00N 43°33' E 010°18'0 0.0
2018-Aug-10 05:30N 43°33' E 010°18'0 0.0
2018-Aug-10 05:00N 43°33' E 010°18'0 0.0
2018-Aug-10 04:30N 43°33' E 010°18'1 1.6
2018-Aug-10 04:00N 43°32' E 010°17'3 6.5
2018-Aug-10 03:30N 43°30' E 010°14'4 7.7
2018-Aug-10 03:00N 43°28' E 010°10'510.9
2018-Aug-10 02:30N 43°24' E 010°05'611.9
2018-Aug-10 02:00N 43°19' E 009°59'510.7
2018-Aug-10 01:30N 43°19' E 009°52'510.6
2018-Aug-10 01:00N 43°21' E 009°45'611.6
2018-Aug-10 00:30N 43°25' E 009°40'612.2
2018-Aug-10 00:00N 43°29' E 009°34'612.5
2018-Aug-09 23:30N 43°33' E 009°27'612.1
2018-Aug-09 23:00N 43°37' E 009°20'611.9
2018-Aug-09 22:30N 43°42' E 009°15'611.9
2018-Aug-09 22:00N 43°46' E 009°09'611.6
2018-Aug-09 21:30N 43°50' E 009°04'511.1
2018-Aug-09 21:00N 43°55' E 009°03'510.5
2018-Aug-09 20:30N 44°01' E 009°02'612.9
2018-Aug-09 20:00N 44°07' E 009°01'714.1
2018-Aug-09 19:30N 44°14' E 008°60'713.9
2018-Aug-09 19:00N 44°21' E 008°57'3 7.0
2018-Aug-09 18:30N 44°24' E 008°55'1 1.5
2018-Aug-09 18:00N 44°25' E 008°55'0 0.0
2018-Aug-09 17:30N 44°25' E 008°55'0 0.0
2018-Aug-09 17:00N 44°25' E 008°55'0 0.0
2018-Aug-09 16:30N 44°25' E 008°55'0 0.0
2018-Aug-09 16:00N 44°25' E 008°55'0 0.0
2018-Aug-09 15:30N 44°25' E 008°55'0 0.0
2018-Aug-09 15:00N 44°25' E 008°55'0 0.0
2018-Aug-09 14:30N 44°25' E 008°55'0 0.0
2018-Aug-09 14:00N 44°25' E 008°55'0 0.0
2018-Aug-09 13:30N 44°25' E 008°55'0 0.0
2018-Aug-09 13:00N 44°25' E 008°55'0 0.0
2018-Aug-09 12:30N 44°25' E 008°55'0 0.0
2018-Aug-09 12:00N 44°25' E 008°55'0 0.0
2018-Aug-09 11:30N 44°25' E 008°55'0 0.0
2018-Aug-09 11:00N 44°25' E 008°55'0 0.0
2018-Aug-09 10:30N 44°25' E 008°55'0 0.0
2018-Aug-09 10:00N 44°25' E 008°55'0 0.0
2018-Aug-09 09:30N 44°25' E 008°55'0 0.0
2018-Aug-09 09:00N 44°25' E 008°55'0 0.0
2018-Aug-09 08:30N 44°25' E 008°55'0 0.0
2018-Aug-09 08:00N 44°25' E 008°55'0 0.0
2018-Aug-09 07:30N 44°25' E 008°55'0 0.0
2018-Aug-09 07:00N 44°25' E 008°55'0 0.0
2018-Aug-09 06:30N 44°25' E 008°55'0 0.0
2018-Aug-09 06:00N 44°25' E 008°55'1 1.1
2018-Aug-09 05:30N 44°24' E 008°55'3 5.5
2018-Aug-09 05:00N 44°22' E 008°58'510.8
2018-Aug-09 04:30N 44°17' E 008°58'815.3
2018-Aug-09 04:01N 44°12' E 008°49'713.8
2018-Aug-09 03:30N 44°08' E 008°42'713.3
2018-Aug-09 03:00N 44°03' E 008°35'612.4
2018-Aug-09 02:30N 43°59' E 008°29'612.1
2018-Aug-09 02:00N 43°55' E 008°22'611.7
2018-Aug-09 01:30N 43°52' E 008°16'813.3
2018-Aug-09 00:55N 43°47' E 008°07'817.1
2018-Aug-09 00:27N 43°43' E 007°57'817.2
2018-Aug-08 23:59N 43°38' E 007°48'817.2
2018-Aug-08 23:30N 43°33' E 007°39'917.1
2018-Aug-08 23:01N 43°28' E 007°30'917.1
2018-Aug-08 22:31N 43°23' E 007°21'917.4
2018-Aug-08 22:00N 43°18' E 007°11'917.5
2018-Aug-08 21:31N 43°12' E 007°01'712.7
2018-Aug-08 21:00N 43°06' E 007°00'67588.6 250 / 61015.310.8 27.023.428.0
2018-Aug-08 20:59N 43°07' E 006°51'917.3
2018-Aug-08 20:27N 43°02' E 006°41'1017.2
2018-Aug-08 19:54N 42°56' E 006°31'616.8
2018-Aug-08 19:30N 42°54' E 006°22'917.3
2018-Aug-08 18:59N 42°54' E 006°10'4217.4
2018-Aug-08 16:36N 43°08' E 005°16'217.9
2018-Aug-08 16:30N 43°09' E 005°14'815.1
2018-Aug-08 16:00N 43°16' E 005°09'815.7
2018-Aug-08 15:30N 43°21' E 005°17'2 2.9
2018-Aug-08 14:51N 43°21' E 005°20'0 0.0
2018-Aug-08 14:12N 43°21' E 005°20'0 0.0
2018-Aug-08 13:58N 43°21' E 005°20'0 0.0
2018-Aug-08 13:22N 43°21' E 005°20'0 0.0
2018-Aug-08 12:45N 43°21' E 005°20'0 0.0
2018-Aug-08 11:51N 43°21' E 005°20'0 0.0
2018-Aug-08 11:28N 43°21' E 005°20'0 0.0
2018-Aug-08 10:51N 43°21' E 005°20'0 0.0
2018-Aug-08 10:30N 43°21' E 005°20'0 0.0
2018-Aug-08 09:56N 43°21' E 005°20'0 0.0
2018-Aug-08 09:28N 43°21' E 005°20'0 0.0
2018-Aug-08 08:57N 43°21' E 005°20'0 0.0
2018-Aug-08 08:31N 43°21' E 005°20'0 0.0
2018-Aug-08 07:50N 43°21' E 005°20'0 0.0
2018-Aug-08 07:22N 43°21' E 005°20'0 0.0
2018-Aug-08 06:58N 43°21' E 005°20'0 0.0
2018-Aug-08 06:28N 43°21' E 005°20'0 0.0
2018-Aug-08 05:54N 43°21' E 005°20'0 1.2
2018-Aug-08 05:30N 43°21' E 005°19'3 6.5
2018-Aug-08 05:01N 43°19' E 005°16'611.1
2018-Aug-08 04:30N 43°15' E 005°10'612.3
2018-Aug-08 04:00N 43°10' E 005°07'612.6
2018-Aug-08 03:30N 43°05' E 005°02'11519.0
2018-Aug-07 21:27N 41°34' E 003°26'920.3
2018-Aug-07 21:00N 41°27' E 003°19'3236.0
2018-Aug-07 21:00N 41°30' E 003°18'12819.2 290 / 51014.910.8 27.024.126.0
2018-Aug-07 14:20N 39°48' E 001°36'618.5
2018-Aug-07 14:00N 39°43' E 001°31'1019.3
2018-Aug-07 13:29N 39°35' E 001°23'1021.3
2018-Aug-07 13:00N 39°27' E 001°15'5721.4
2018-Aug-07 10:20N 38°41' E 000°32'721.5
2018-Aug-07 10:00N 38°35' E 000°27'1121.1
2018-Aug-07 09:29N 38°26' E 000°19'1019.8
2018-Aug-07 09:00N 38°18' E 000°12'232.7 150 / 101013.410.8 29.023.228.0
2018-Aug-07 08:57N 38°17' E 000°10'920.2
2018-Aug-07 08:30N 38°10' E 000°03'1020.2
2018-Aug-07 08:00N 38°02' W 000°04'1219.9
2018-Aug-07 07:25N 37°53' W 000°13'818.1
2018-Aug-07 07:00N 37°47' W 000°19'918.2
2018-Aug-07 06:30N 37°40' W 000°26'918.1
2018-Aug-07 06:00N 37°32' W 000°33'918.2
2018-Aug-07 05:30N 37°26' W 000°41'918.3
2018-Aug-07 05:00N 37°20' W 000°50'918.3
2018-Aug-07 04:29N 37°14' W 000°58'918.4
2018-Aug-07 03:59N 37°08' W 001°07'918.3
2018-Aug-07 03:29N 37°02' W 001°16'1118.1
2018-Aug-07 02:52N 36°55' W 001°26'1917.9
2018-Aug-07 01:48N 36°42' W 001°44'618.5
2018-Aug-07 01:29N 36°37' W 001°49'4617.5
2018-Aug-06 22:51N 36°20' W 002°42'2111.1
2018-Aug-06 21:00N 36°12' W 003°06'   360 / 41013.210.8 26.023.823.0

Dump ship's entire track history